Terminal Aerodrome Forecast
Issued by NWS Sioux Falls, SD

Home | Current Version | Previous Version | Text Only | Print | Product List | Glossary On
Versions: 1 2 3 4 5 6 7 8 9 10 11 12 13 14 15
000
FTUS43 KFSD 031138
TAFHON
TAF
KHON 031138Z 0312/0412 36008KT 1/2SM SN OVC008
     FM031300 35028G38KT 3/4SM -SN BLSN OVC012
     FM031600 34025G36KT 3SM BLSN BKN020
     FM032100 32020G30KT P6SM SCT025 BKN100
     FM040000 30012KT P6SM SKC
     FM040500 29007KT P6SM SCT040=

USA.gov is the U.S. government's official web portal to all federal, state and local government web resources and services.